La Joya, New Mexico
Current Conditions -  °F | °C
As of 7:55 PM on Friday 21 Nov 2014 (Local Time) from KE80 Reporting Station
Clear Clear  
Wind Chill: 37°   Ceiling: Unl
Heat Index: 37°   Visibility: 10mi
Dew Point: 15°   Wind: 0mph
Humidity: 40%   Direction: NA
Pressure: 30.05"   Gusts: NA
Location:  34.35°N, 106.84°W
Report Text: KE80 220255Z AUTO 00000KT 10SM CLR 03/M10 A3005 RMK AO2 T00261097
Loading
Personal Weather Stations






























Interactive Weather Map New forecast layout! Learn more

10-Day Weather Forecast

Advertisements
Track Severe Weather on mobile